Morris Ranch, Texas
Current Conditions -  °F | °C
As of 2:55 PM on Thursday 18 Dec 2014 (Local Time) from KT82 Reporting Station
Broken Clouds Broken Clouds  
Wind Chill: 67°   Ceiling: 5500
Heat Index: 67°   Visibility: 10mi
Dew Point: 57°   Wind: 0mph
Humidity: 70%   Direction: NA
Pressure: 30.02"   Gusts: NA
Location:  30.3069°N, 98.8978°W
Report Text: KT82 182055Z AUTO 00000KT 10SM SCT027 SCT032 BKN055 19/14 A3002 RMK AO2 T01940139
Loading
Personal Weather Stations






























Interactive Weather Map New forecast layout! Learn more

10-Day Weather Forecast

Advertisements
Track Severe Weather on mobile